Time;durP1;ratioP1;P1;durP2;ratioP2;P2;SDS_P1;SDS_P2;PMS_P1;PMS_P2;Temp;Humidity;BMP_temperature;BMP_pressure;BME280_temperature;BME280_humidity;BME280_pressure;Samples;Min_cycle;Max_cycle;Signal;HPM_P1;HPM_P2
2024/04/10 00:00:12;;;;;;;1.35;1.20;;;9.50;75.50;;;;;;5303209;26;20420;-61
2024/04/10 00:02:41;;;;;;;1.88;1.30;;;9.40;75.50;;;;;;5292194;26;19999;-63
2024/04/10 00:05:08;;;;;;;1.05;1.00;;;9.50;75.50;;;;;;5303214;26;20218;-62
2024/04/10 00:07:34;;;;;;;1.60;1.40;;;9.50;75.40;;;;;;5303746;26;20322;-63
2024/04/10 00:10:00;;;;;;;1.35;1.25;;;9.50;75.40;;;;;;5300704;26;20476;-60
2024/04/10 00:12:25;;;;;;;1.58;1.20;;;9.40;75.40;;;;;;5302604;26;20005;-62
2024/04/10 00:14:51;;;;;;;1.10;1.00;;;9.40;75.40;;;;;;5305269;26;19998;-61
2024/04/10 00:17:16;;;;;;;2.33;1.45;;;9.40;75.40;;;;;;5301570;26;20404;-63
2024/04/10 00:19:42;;;;;;;1.42;1.20;;;9.40;75.60;;;;;;5303556;26;19998;-62
2024/04/10 00:22:07;;;;;;;1.48;1.20;;;9.40;75.60;;;;;;5305259;26;20009;-61
2024/04/10 00:24:33;;;;;;;1.15;1.08;;;9.40;75.70;;;;;;5302479;26;20009;-61
2024/04/10 00:26:59;;;;;;;2.10;1.20;;;9.40;75.60;;;;;;5302340;26;20006;-59
2024/04/10 00:29:24;;;;;;;1.63;1.23;;;9.40;75.40;;;;;;5299110;26;20486;-63
2024/04/10 00:31:53;;;;;;;1.42;1.20;;;9.50;75.40;;;;;;5300912;26;20009;-62
2024/04/10 00:34:18;;;;;;;1.45;1.20;;;9.50;75.60;;;;;;5301149;26;20345;-60
2024/04/10 00:36:44;;;;;;;1.30;1.20;;;9.50;75.60;;;;;;5303182;26;20008;-62
2024/04/10 00:39:10;;;;;;;1.30;1.17;;;9.50;75.60;;;;;;5302172;26;19999;-62
2024/04/10 00:41:36;;;;;;;1.30;1.20;;;9.50;75.50;;;;;;5304258;26;19993;-61
2024/04/10 00:44:01;;;;;;;1.63;1.20;;;9.50;75.40;;;;;;5301166;26;20013;-62
2024/04/10 00:46:27;;;;;;;1.52;1.30;;;9.40;75.50;;;;;;5301924;26;20102;-62
2024/04/10 00:48:54;;;;;;;1.40;1.30;;;9.40;75.40;;;;;;5294998;26;20009;-62
2024/04/10 00:51:22;;;;;;;1.38;1.27;;;9.40;75.40;;;;;;5297501;26;20005;-62
2024/04/10 00:53:48;;;;;;;2.53;1.30;;;9.40;75.50;;;;;;5300392;26;19998;-61
2024/04/10 00:56:14;;;;;;;1.65;1.20;;;9.40;75.50;;;;;;5305840;26;20067;-63
2024/04/10 00:58:41;;;;;;;1.30;1.20;;;9.30;75.40;;;;;;5303742;26;20017;-61
2024/04/10 01:01:08;;;;;;;2.88;1.17;;;9.30;75.50;;;;;;5297174;26;20001;-62
2024/04/10 01:03:36;;;;;;;1.67;1.25;;;9.40;75.60;;;;;;5297840;26;20012;-62
2024/04/10 01:06:06;;;;;;;1.75;1.10;;;9.40;75.50;;;;;;5298131;26;20002;-60
2024/04/10 01:08:33;;;;;;;1.40;1.30;;;9.40;75.40;;;;;;5293533;26;20055;-61
2024/04/10 01:10:59;;;;;;;2.15;1.20;;;9.40;75.50;;;;;;5296566;26;20543;-61
2024/04/10 01:13:26;;;;;;;2.85;1.27;;;9.40;75.50;;;;;;5294925;26;19995;-63
2024/04/10 01:15:52;;;;;;;1.20;1.10;;;9.40;75.60;;;;;;5301503;26;20473;-62
2024/04/10 01:18:17;;;;;;;1.65;1.20;;;9.40;75.50;;;;;;5288197;27;20090;-62
2024/04/10 01:20:43;;;;;;;2.17;1.08;;;9.40;75.50;;;;;;5300843;26;20017;-61
2024/04/10 01:23:09;;;;;;;2.63;1.13;;;9.40;75.50;;;;;;5303697;26;19994;-62
2024/04/10 01:25:34;;;;;;;1.30;1.20;;;9.40;75.40;;;;;;5290550;26;20494;-62
2024/04/10 01:28:00;;;;;;;2.15;1.30;;;9.40;75.40;;;;;;5296653;26;19998;-62
2024/04/10 01:30:25;;;;;;;1.20;1.10;;;9.40;75.40;;;;;;5289978;26;20009;-62
2024/04/10 01:32:51;;;;;;;1.45;1.35;;;9.40;75.40;;;;;;5302812;26;20413;-62
2024/04/10 01:35:17;;;;;;;1.77;1.23;;;9.30;75.40;;;;;;5299749;26;20072;-60
2024/04/10 01:37:42;;;;;;;1.30;1.20;;;9.30;75.40;;;;;;5302371;26;20016;-61
2024/04/10 01:40:09;;;;;;;2.40;1.00;;;9.30;75.40;;;;;;5300091;26;20326;-60
2024/04/10 01:42:35;;;;;;;1.30;1.20;;;9.30;75.40;;;;;;5305370;26;20009;-60
2024/04/10 01:45:02;;;;;;;1.58;1.08;;;9.30;75.40;;;;;;5296735;26;20030;-60
2024/04/10 01:47:28;;;;;;;1.23;1.10;;;9.30;75.60;;;;;;5291233;26;20012;-62
2024/04/10 01:49:53;;;;;;;1.73;1.27;;;9.30;75.60;;;;;;5299105;26;20359;-61
2024/04/10 01:52:19;;;;;;;1.48;1.25;;;9.30;75.60;;;;;;5305430;26;19998;-62
2024/04/10 01:54:46;;;;;;;1.95;1.10;;;9.30;75.60;;;;;;5299231;26;20012;-63
2024/04/10 01:57:12;;;;;;;1.27;1.13;;;9.30;75.60;;;;;;5300572;26;20009;-61
2024/04/10 01:59:38;;;;;;;2.28;1.00;;;9.30;75.60;;;;;;5299111;26;20408;-62
2024/04/10 02:02:03;;;;;;;1.55;1.00;;;9.30;75.80;;;;;;5302230;26;20002;-62
2024/04/10 02:04:29;;;;;;;1.48;1.15;;;9.30;75.70;;;;;;5298606;26;19994;-62
2024/04/10 02:06:55;;;;;;;0.90;0.90;;;9.30;75.70;;;;;;5300979;26;20056;-61
2024/04/10 02:09:20;;;;;;;1.15;1.00;;;9.30;75.80;;;;;;5295502;26;20009;-61
2024/04/10 02:11:46;;;;;;;1.20;1.20;;;9.30;75.90;;;;;;5293239;26;20009;-60
2024/04/10 02:14:12;;;;;;;1.13;1.02;;;9.30;75.90;;;;;;5303804;26;20341;-62
2024/04/10 02:16:37;;;;;;;0.90;0.90;;;9.30;75.90;;;;;;5294546;26;19997;-63
2024/04/10 02:19:03;;;;;;;1.38;0.98;;;9.30;75.80;;;;;;5300826;26;20005;-62
2024/04/10 02:21:29;;;;;;;0.90;0.90;;;9.20;75.70;;;;;;5301223;26;22370;-63
2024/04/10 02:23:56;;;;;;;1.35;0.90;;;9.30;75.90;;;;;;5296465;26;19998;-63
2024/04/10 02:26:22;;;;;;;2.22;1.00;;;9.20;75.80;;;;;;5294978;26;19997;-60
2024/04/10 02:28:47;;;;;;;1.20;0.90;;;9.20;75.80;;;;;;5293614;26;19998;-62
2024/04/10 02:31:13;;;;;;;1.30;0.88;;;9.20;75.80;;;;;;5300474;26;20511;-61
2024/04/10 02:33:39;;;;;;;1.15;0.90;;;9.20;75.90;;;;;;5296825;26;20010;-61
2024/04/10 02:36:05;;;;;;;1.35;0.90;;;9.20;75.90;;;;;;5301147;26;20009;-61
2024/04/10 02:38:33;;;;;;;3.15;0.88;;;9.20;76.00;;;;;;5299479;26;20002;-62
2024/04/10 02:40:59;;;;;;;0.80;0.80;;;9.20;76.60;;;;;;5301511;26;20033;-62
2024/04/10 02:43:24;;;;;;;0.80;0.80;;;9.20;75.80;;;;;;5301185;26;20357;-63
2024/04/10 02:45:57;;;;;;;1.13;0.80;;;9.20;75.80;;;;;;5296964;26;19998;-62
2024/04/10 02:48:23;;;;;;;3.60;0.98;;;9.30;76.10;;;;;;5297235;26;20016;-63
2024/04/10 02:50:49;;;;;;;0.85;0.85;;;9.30;75.80;;;;;;5301272;26;20071;-62
2024/04/10 02:53:15;;;;;;;1.30;1.17;;;9.30;75.80;;;;;;5293953;26;20006;-61
2024/04/10 02:55:45;;;;;;;1.17;0.82;;;9.30;75.70;;;;;;5301687;26;20048;-62
2024/04/10 02:58:11;;;;;;;1.00;0.90;;;9.30;75.80;;;;;;5300944;26;19997;-63
2024/04/10 03:00:54;;;;;;;1.13;0.93;;;9.30;75.70;;;;;;5297088;26;20071;-61
2024/04/10 03:03:20;;;;;;;1.08;0.90;;;9.30;76.00;;;;;;5288520;26;20005;-63
2024/04/10 03:05:58;;;;;;;0.80;0.80;;;9.30;75.60;;;;;;5297114;26;21973;-60
2024/04/10 03:08:23;;;;;;;2.22;0.80;;;9.20;75.70;;;;;;5297886;26;20076;-62
2024/04/10 03:10:49;;;;;;;1.25;0.75;;;9.30;75.70;;;;;;5292975;26;20357;-61
2024/04/10 03:13:15;;;;;;;1.33;0.80;;;9.20;75.70;;;;;;5298671;26;20042;-61
2024/04/10 03:15:41;;;;;;;1.83;0.95;;;9.20;75.80;;;;;;5297749;26;20013;-61
2024/04/10 03:18:07;;;;;;;1.65;0.85;;;9.30;76.20;;;;;;5299507;26;20520;-62
2024/04/10 03:20:32;;;;;;;1.25;0.80;;;9.30;76.60;;;;;;5292210;26;20374;-62
2024/04/10 03:22:59;;;;;;;1.65;0.90;;;9.30;75.80;;;;;;5292445;26;20083;-62
2024/04/10 03:25:25;;;;;;;3.15;1.17;;;9.20;75.90;;;;;;5290500;26;20099;-61
2024/04/10 03:27:50;;;;;;;1.35;0.90;;;9.30;75.90;;;;;;5294567;26;20010;-62
2024/04/10 03:30:16;;;;;;;0.80;0.80;;;9.30;76.00;;;;;;5293014;26;20009;-62
2024/04/10 03:32:42;;;;;;;2.38;1.05;;;9.30;76.00;;;;;;5292584;26;20001;-62
2024/04/10 03:35:07;;;;;;;3.42;1.13;;;9.30;76.10;;;;;;5293849;26;20010;-63
2024/04/10 03:37:33;;;;;;;1.67;0.88;;;9.30;76.30;;;;;;5293619;26;20068;-62
2024/04/10 03:39:59;;;;;;;2.03;1.00;;;9.30;76.40;;;;;;5294712;26;20481;-62
2024/04/10 03:42:24;;;;;;;2.42;0.85;;;9.30;76.60;;;;;;5294639;26;20009;-61
2024/04/10 03:44:50;;;;;;;0.88;0.85;;;9.30;76.60;;;;;;5295839;26;20060;-62
2024/04/10 03:47:16;;;;;;;1.55;1.05;;;9.30;77.70;;;;;;5296207;26;20012;-63
2024/04/10 03:49:41;;;;;;;1.40;0.70;;;9.20;76.80;;;;;;5297413;26;20002;-62
2024/04/10 03:52:07;;;;;;;1.30;0.93;;;9.20;76.90;;;;;;5291853;26;19994;-63
2024/04/10 03:54:32;;;;;;;0.70;0.70;;;9.30;77.00;;;;;;5296080;26;20005;-61
2024/04/10 03:56:58;;;;;;;1.30;0.90;;;9.20;77.10;;;;;;5292977;26;20006;-60
2024/04/10 03:59:24;;;;;;;1.45;1.17;;;9.20;77.00;;;;;;5296934;26;19998;-62
2024/04/10 04:01:49;;;;;;;1.90;1.00;;;9.30;77.00;;;;;;5301713;26;20063;-63
2024/04/10 04:04:15;;;;;;;3.65;0.90;;;9.30;77.10;;;;;;5333569;26;19997;-61
2024/04/10 04:06:42;;;;;;;1.05;0.95;;;9.30;77.20;;;;;;5328486;26;20017;-63
2024/04/10 04:09:08;;;;;;;1.95;0.93;;;9.30;77.30;;;;;;5334341;26;19997;-62
2024/04/10 04:11:34;;;;;;;1.35;1.15;;;9.20;77.30;;;;;;5331548;26;20084;-62
2024/04/10 04:14:00;;;;;;;2.42;1.60;;;9.20;77.30;;;;;;5301237;26;20010;-63
2024/04/10 04:16:25;;;;;;;2.15;1.95;;;9.20;77.50;;;;;;5290440;26;19998;-62
2024/04/10 04:18:53;;;;;;;2.10;1.90;;;9.20;77.60;;;;;;5296777;26;20008;-61
2024/04/10 04:21:18;;;;;;;2.03;1.50;;;9.30;78.60;;;;;;5299884;26;20009;-63
2024/04/10 04:23:45;;;;;;;1.40;1.30;;;9.20;77.60;;;;;;5295444;26;19997;-60
2024/04/10 04:26:11;;;;;;;2.70;1.48;;;9.30;77.60;;;;;;5301209;26;20072;-63
2024/04/10 04:28:37;;;;;;;1.30;1.20;;;9.30;77.50;;;;;;5293155;26;20010;-62
2024/04/10 04:31:02;;;;;;;1.48;1.38;;;9.30;77.40;;;;;;5293612;26;20079;-62
2024/04/10 04:33:28;;;;;;;3.97;1.40;;;9.30;77.40;;;;;;5297875;26;20008;-61
2024/04/10 04:35:53;;;;;;;2.47;1.27;;;9.30;77.40;;;;;;5301248;26;19998;-62
2024/04/10 04:38:19;;;;;;;2.75;1.50;;;9.30;77.30;;;;;;5299953;27;20013;-61
2024/04/10 04:40:45;;;;;;;1.95;1.02;;;9.30;77.40;;;;;;5300683;26;20362;-61
2024/04/10 04:43:10;;;;;;;1.55;1.25;;;9.30;77.30;;;;;;5300290;26;20006;-63
2024/04/10 04:45:37;;;;;;;1.65;1.00;;;9.30;77.30;;;;;;5306582;26;20005;-62
2024/04/10 04:48:07;;;;;;;2.13;1.23;;;9.30;77.40;;;;;;5300799;26;20445;-60
2024/04/10 04:50:41;;;;;;;2.28;1.17;;;9.30;77.40;;;;;;5302042;26;20354;-62
2024/04/10 04:53:10;;;;;;;2.67;1.40;;;9.30;77.40;;;;;;5304947;26;20037;-62
2024/04/10 04:55:37;;;;;;;3.03;1.15;;;9.30;77.50;;;;;;5303963;26;20098;-61
2024/04/10 04:58:03;;;;;;;3.03;1.20;;;9.20;77.50;;;;;;5306413;26;20008;-62
2024/04/10 05:00:29;;;;;;;3.50;1.30;;;9.20;77.70;;;;;;5303002;26;19997;-62
2024/04/10 05:02:58;;;;;;;2.13;1.08;;;9.20;77.70;;;;;;5303054;26;20010;-61
2024/04/10 05:05:23;;;;;;;2.53;1.20;;;9.20;77.80;;;;;;5300689;26;20053;-62
2024/04/10 05:07:49;;;;;;;2.22;1.10;;;9.20;77.80;;;;;;5306317;26;20005;-60
2024/04/10 05:10:16;;;;;;;1.38;1.13;;;9.20;77.90;;;;;;5307277;26;19997;-60
2024/04/10 05:12:42;;;;;;;1.23;1.13;;;9.20;78.90;;;;;;5304403;26;20048;-62
2024/04/10 05:15:10;;;;;;;2.20;1.20;;;9.20;78.10;;;;;;5303029;26;19997;-62
2024/04/10 05:17:39;;;;;;;3.30;1.27;;;9.20;78.10;;;;;;5299078;26;20041;-61
2024/04/10 05:20:08;;;;;;;1.40;1.30;;;9.10;78.20;;;;;;5299105;26;19993;-63
2024/04/10 05:22:34;;;;;;;1.70;1.30;;;9.20;78.20;;;;;;5304024;26;19997;-61
2024/04/10 05:24:59;;;;;;;1.85;1.40;;;9.20;78.30;;;;;;5305681;26;20013;-60
2024/04/10 05:27:27;;;;;;;2.13;1.38;;;9.20;78.30;;;;;;5305439;26;20004;-62
2024/04/10 05:29:59;;;;;;;1.50;1.17;;;9.10;78.20;;;;;;5302175;26;20009;-62
2024/04/10 05:32:26;;;;;;;2.78;1.50;;;9.10;78.50;;;;;;5304043;26;20002;-62
2024/04/10 05:34:53;;;;;;;4.40;1.70;;;9.20;78.40;;;;;;5303533;26;20002;-62
2024/04/10 05:37:19;;;;;;;5.95;1.38;;;9.10;78.40;;;;;;5304805;26;20016;-61
2024/04/10 05:39:45;;;;;;;1.70;1.60;;;9.10;78.50;;;;;;5304824;26;20013;-62
2024/04/10 05:42:10;;;;;;;2.80;1.63;;;9.20;78.60;;;;;;5303689;26;20372;-61
2024/04/10 05:44:36;;;;;;;5.90;1.48;;;9.20;78.60;;;;;;5301262;26;19998;-60
2024/04/10 05:47:02;;;;;;;4.25;1.83;;;9.20;78.60;;;;;;5302534;26;20419;-60
2024/04/10 05:49:33;;;;;;;2.30;1.70;;;9.20;78.70;;;;;;5301280;26;20009;-62
2024/04/10 05:51:59;;;;;;;13.10;2.28;;;9.30;78.90;;;;;;5307557;26;20013;-60
2024/04/10 05:54:24;;;;;;;2.22;1.80;;;9.30;78.60;;;;;;5305056;26;20009;-62
2024/04/10 05:56:51;;;;;;;3.85;1.88;;;9.30;78.70;;;;;;5301443;26;20005;-61
2024/04/10 05:59:17;;;;;;;8.00;2.20;;;9.30;78.70;;;;;;5301938;26;20400;-62
2024/04/10 06:01:42;;;;;;;5.40;2.20;;;9.30;78.70;;;;;;5306017;26;20020;-63
2024/04/10 06:04:08;;;;;;;6.38;1.95;;;9.40;78.70;;;;;;5305282;26;20008;-62
2024/04/10 06:06:34;;;;;;;4.50;2.10;;;9.40;78.70;;;;;;5305330;26;19998;-62
2024/04/10 06:09:00;;;;;;;3.22;2.40;;;9.40;78.60;;;;;;5299192;26;20014;-62
2024/04/10 06:11:27;;;;;;;2.90;2.10;;;9.40;78.60;;;;;;5305382;26;20085;-61
2024/04/10 06:13:57;;;;;;;4.50;2.10;;;9.40;78.50;;;;;;5302030;26;20469;-61
2024/04/10 06:16:23;;;;;;;3.47;2.00;;;9.50;78.60;;;;;;5303109;26;20848;-62
2024/04/10 06:18:48;;;;;;;2.97;2.35;;;9.50;78.30;;;;;;5303253;26;19993;-62
2024/04/10 06:21:14;;;;;;;3.10;2.10;;;9.60;78.30;;;;;;5304774;26;20053;-63
2024/04/10 06:23:41;;;;;;;2.40;1.90;;;9.60;78.10;;;;;;5301924;26;20449;-61
2024/04/10 06:26:07;;;;;;;2.28;2.00;;;9.60;78.00;;;;;;5299693;26;20005;-61
2024/04/10 06:28:32;;;;;;;3.25;2.13;;;9.60;77.90;;;;;;5304362;26;20001;-63
2024/04/10 06:30:58;;;;;;;4.70;2.28;;;9.60;77.90;;;;;;5301105;26;20001;-62
2024/04/10 06:33:24;;;;;;;3.13;2.10;;;9.70;77.90;;;;;;5303788;26;20326;-62
2024/04/10 06:35:49;;;;;;;4.10;2.20;;;9.70;77.60;;;;;;5304344;26;20013;-62
2024/04/10 06:38:15;;;;;;;4.88;2.10;;;9.70;77.50;;;;;;5304314;26;20026;-63
2024/04/10 06:40:42;;;;;;;4.90;2.30;;;9.60;77.50;;;;;;5301775;26;20014;-62
2024/04/10 06:43:07;;;;;;;5.32;2.20;;;9.70;77.40;;;;;;5305085;26;20325;-61
2024/04/10 06:45:33;;;;;;;2.92;2.28;;;9.70;77.20;;;;;;5298633;26;20016;-60
2024/04/10 06:47:59;;;;;;;4.10;2.45;;;9.70;77.20;;;;;;5304404;26;20427;-63
2024/04/10 06:50:25;;;;;;;3.33;2.03;;;9.50;77.20;;;;;;5301697;26;20473;-61
2024/04/10 06:52:51;;;;;;;18.80;2.70;;;9.70;78.10;;;;;;5304232;26;20001;-62
2024/04/10 06:55:17;;;;;;;4.97;2.30;;;9.70;77.30;;;;;;5301262;26;20006;-61
2024/04/10 06:57:42;;;;;;;4.85;2.70;;;9.70;77.30;;;;;;5303237;26;20079;-62
2024/04/10 07:00:14;;;;;;;6.55;2.40;;;9.70;77.30;;;;;;5301592;26;20079;-62
2024/04/10 07:02:43;;;;;;;3.30;1.80;;;9.70;77.20;;;;;;5304626;26;20458;-61
2024/04/10 07:05:08;;;;;;;3.42;1.98;;;9.70;76.90;;;;;;5300313;26;19998;-61
2024/04/10 07:07:34;;;;;;;4.18;2.20;;;9.70;76.70;;;;;;5302852;26;20019;-60
2024/04/10 07:09:59;;;;;;;5.43;2.58;;;9.70;76.80;;;;;;5303896;26;20001;-62
2024/04/10 07:12:25;;;;;;;4.38;2.33;;;9.70;76.80;;;;;;5301609;26;20445;-61
2024/04/10 07:14:51;;;;;;;6.53;2.08;;;9.70;76.80;;;;;;5301952;26;20008;-62
2024/04/10 07:17:16;;;;;;;3.90;2.03;;;9.70;76.80;;;;;;5301071;26;20341;-61
2024/04/10 07:19:42;;;;;;;4.35;2.20;;;9.80;76.70;;;;;;5302587;26;20006;-63
2024/04/10 07:22:08;;;;;;;4.07;2.13;;;9.80;76.50;;;;;;5301426;26;20012;-61
2024/04/10 07:24:34;;;;;;;4.88;2.00;;;9.90;76.40;;;;;;5304704;26;20009;-62
2024/04/10 07:28:30;;;;;;;3.50;1.75;;;9.90;76.30;;;;;;5433987;25;20798;-63
2024/04/10 07:30:56;;;;;;;7.40;1.90;;;10.00;76.10;;;;;;5392008;26;20056;-61
2024/04/10 07:33:21;;;;;;;4.47;1.50;;;10.00;76.10;;;;;;5431179;25;20023;-63
2024/04/10 07:35:47;;;;;;;3.03;1.60;;;10.00;76.10;;;;;;5431099;26;19995;-63
2024/04/10 07:38:12;;;;;;;4.65;1.92;;;10.10;76.10;;;;;;5444462;26;19995;-64
2024/04/10 07:40:38;;;;;;;6.90;2.05;;;10.20;76.00;;;;;;5430133;26;20455;-63
2024/04/10 07:43:04;;;;;;;4.45;1.60;;;10.30;75.80;;;;;;5427373;25;20006;-62
2024/04/10 07:45:29;;;;;;;5.85;1.65;;;10.30;75.80;;;;;;5418467;26;20033;-63
2024/04/10 07:47:55;;;;;;;4.60;1.55;;;10.40;75.40;;;;;;5422955;26;19996;-63
2024/04/10 07:50:20;;;;;;;4.68;1.38;;;10.40;75.30;;;;;;5425920;25;20015;-62
2024/04/10 07:52:46;;;;;;;3.97;1.40;;;10.50;75.10;;;;;;5443505;26;20353;-64
2024/04/10 07:55:12;;;;;;;2.97;1.40;;;10.60;74.60;;;;;;5443680;26;20430;-64
2024/04/10 07:57:39;;;;;;;9.77;1.50;;;10.60;74.20;;;;;;5431248;26;19995;-62
2024/04/10 08:00:08;;;;;;;5.22;1.23;;;10.60;73.70;;;;;;5426631;26;20002;-63
2024/04/10 08:02:34;;;;;;;3.25;1.35;;;10.70;73.50;;;;;;5430318;26;20023;-62
2024/04/10 08:04:59;;;;;;;4.47;1.40;;;10.70;73.30;;;;;;5437135;26;20007;-63
2024/04/10 08:07:25;;;;;;;3.63;1.23;;;10.70;73.00;;;;;;5413659;26;19995;-62
2024/04/10 08:09:50;;;;;;;4.95;1.88;;;10.80;72.90;;;;;;5444297;26;20039;-63
2024/04/10 08:12:16;;;;;;;3.85;1.65;;;10.80;73.00;;;;;;5423899;26;19995;-64
2024/04/10 08:14:42;;;;;;;3.60;1.38;;;10.80;72.60;;;;;;5427025;25;20011;-64
2024/04/10 08:17:07;;;;;;;4.82;1.10;;;10.80;72.50;;;;;;5430184;26;20355;-64
2024/04/10 08:19:33;;;;;;;4.00;1.40;;;10.90;72.60;;;;;;5436834;25;20000;-62
2024/04/10 08:21:58;;;;;;;2.58;1.17;;;10.90;73.20;;;;;;5431340;25;19999;-63
2024/04/10 08:24:24;;;;;;;7.82;1.38;;;10.90;72.30;;;;;;5436888;26;20442;-62
2024/04/10 08:26:49;;;;;;;4.80;1.30;;;10.90;71.90;;;;;;5424451;25;20003;-64
2024/04/10 08:29:15;;;;;;;2.95;1.10;;;10.90;71.50;;;;;;5430174;26;20009;-61
2024/04/10 08:31:41;;;;;;;3.97;1.30;;;11.00;71.90;;;;;;5433949;26;19996;-62
2024/04/10 08:34:07;;;;;;;6.72;1.35;;;11.00;71.80;;;;;;5440035;26;20003;-63
2024/04/10 08:36:33;;;;;;;5.43;1.17;;;11.00;71.80;;;;;;5440375;26;19992;-63
2024/04/10 08:38:59;;;;;;;4.85;1.20;;;11.10;71.00;;;;;;5407604;26;19999;-61
2024/04/10 08:41:24;;;;;;;7.15;1.35;;;11.10;71.00;;;;;;5402180;26;20520;-60
2024/04/10 08:43:51;;;;;;;3.92;1.20;;;11.10;71.10;;;;;;5420141;26;19991;-63
2024/04/10 08:46:19;;;;;;;5.70;1.65;;;11.20;71.30;;;;;;5418877;26;20006;-63
2024/04/10 08:48:45;;;;;;;5.03;1.20;;;11.30;71.40;;;;;;5416146;26;20003;-62
2024/04/10 08:51:12;;;;;;;5.85;1.50;;;11.40;70.90;;;;;;5407529;26;20008;-63
2024/04/10 08:53:42;;;;;;;3.17;1.23;;;11.40;70.60;;;;;;5406263;26;20399;-62
2024/04/10 08:56:15;;;;;;;4.70;1.20;;;11.50;70.60;;;;;;5407442;26;20337;-63
2024/04/10 08:58:41;;;;;;;2.90;1.23;;;11.50;70.70;;;;;;5408237;26;20349;-63
2024/04/10 09:01:07;;;;;;;3.95;1.23;;;11.60;70.90;;;;;;5425759;26;20079;-62
2024/04/10 09:03:37;;;;;;;9.20;1.23;;;11.70;70.70;;;;;;5416339;26;20009;-63
2024/04/10 09:06:07;;;;;;;6.28;1.48;;;11.80;70.30;;;;;;5435022;26;20326;-63
2024/04/10 09:08:33;;;;;;;4.65;1.50;;;11.80;70.20;;;;;;5413002;26;20000;-63
2024/04/10 09:10:59;;;;;;;3.28;1.20;;;12.00;69.90;;;;;;5409546;26;20012;-61
2024/04/10 09:13:24;;;;;;;7.40;1.60;;;12.00;69.40;;;;;;5399479;26;20061;-61
2024/04/10 09:16:00;;;;;;;3.13;1.50;;;12.10;68.80;;;;;;5424358;26;20537;-63
2024/04/10 09:18:27;;;;;;;6.03;1.42;;;12.10;68.10;;;;;;5410731;26;19992;-61
2024/04/10 09:21:08;;;;;;;4.72;1.50;;;12.10;67.80;;;;;;5423983;26;20003;-63
2024/04/10 09:23:37;;;;;;;5.07;1.50;;;12.10;67.00;;;;;;5407249;26;20454;-63
2024/04/10 09:26:07;;;;;;;4.95;1.20;;;12.00;67.80;;;;;;5413468;26;20454;-63
2024/04/10 09:28:36;;;;;;;2.13;1.35;;;12.00;68.20;;;;;;5395066;26;19995;-63
2024/04/10 09:31:01;;;;;;;4.03;1.08;;;12.10;68.40;;;;;;5406342;26;20636;-62
2024/04/10 09:33:31;;;;;;;3.33;1.10;;;12.00;68.30;;;;;;5405111;26;20023;-62
2024/04/10 09:35:59;;;;;;;6.20;1.40;;;12.10;68.30;;;;;;5410972;26;20015;-64
2024/04/10 09:38:27;;;;;;;6.15;1.38;;;12.20;68.30;;;;;;5418974;26;20105;-63
2024/04/10 09:41:03;;;;;;;4.93;1.23;;;12.20;68.20;;;;;;5417007;26;20035;-62
2024/04/10 09:43:30;;;;;;;4.07;1.30;;;12.30;68.00;;;;;;5407502;26;19995;-63
2024/04/10 09:45:58;;;;;;;4.93;1.10;;;12.40;67.80;;;;;;5392074;26;20053;-61
2024/04/10 09:48:28;;;;;;;2.38;1.27;;;12.40;68.10;;;;;;5395472;26;20027;-63
2024/04/10 09:50:57;;;;;;;4.03;1.27;;;12.40;67.60;;;;;;5404080;26;20051;-61
2024/04/10 09:53:23;;;;;;;5.15;1.40;;;12.50;67.30;;;;;;5415113;26;20002;-62
2024/04/10 09:55:49;;;;;;;4.68;1.50;;;12.50;67.20;;;;;;5406435;26;20028;-64
2024/04/10 09:58:15;;;;;;;7.22;1.58;;;12.50;67.10;;;;;;5424183;26;20011;-64
2024/04/10 10:00:41;;;;;;;3.00;1.45;;;12.60;67.10;;;;;;5389673;26;20070;-64
2024/04/10 10:03:12;;;;;;;5.10;1.40;;;12.70;66.80;;;;;;5402590;26;20003;-61
2024/04/10 10:05:38;;;;;;;4.03;1.50;;;12.70;66.30;;;;;;5403282;26;20078;-62
2024/04/10 10:08:05;;;;;;;6.10;1.60;;;12.70;66.00;;;;;;5424953;26;20006;-63
2024/04/10 10:10:52;;;;;;;5.70;1.50;;;12.80;65.90;;;;;;5407381;26;19991;-63
2024/04/10 10:13:31;;;;;;;4.95;1.27;;;12.80;65.70;;;;;;5399245;26;20007;-63
2024/04/10 10:16:03;;;;;;;4.55;1.40;;;12.80;65.50;;;;;;5405452;26;20365;-63
2024/04/10 10:18:29;;;;;;;4.95;1.50;;;12.90;65.90;;;;;;5406054;26;20102;-62
2024/04/10 10:21:02;;;;;;;5.10;1.50;;;13.00;66.20;;;;;;5412442;26;20336;-62
2024/04/10 10:23:27;;;;;;;4.40;1.52;;;13.00;65.80;;;;;;5430446;26;20334;-64
2024/04/10 10:25:53;;;;;;;5.15;1.83;;;13.10;65.90;;;;;;5421768;26;19999;-62
2024/04/10 10:28:19;;;;;;;5.30;2.03;;;13.20;64.50;;;;;;5408872;26;20040;-63
2024/04/10 10:30:44;;;;;;;3.83;1.60;;;13.20;63.10;;;;;;5406968;26;20011;-64
2024/04/10 10:33:10;;;;;;;6.40;2.15;;;13.30;63.60;;;;;;5433322;26;20580;-64
2024/04/10 10:35:36;;;;;;;6.43;1.80;;;13.20;63.40;;;;;;5410222;26;20002;-64
2024/04/10 10:38:05;;;;;;;3.97;1.80;;;13.30;62.40;;;;;;5404796;26;19991;-62
2024/04/10 10:40:33;;;;;;;3.63;1.30;;;13.20;63.20;;;;;;5409195;26;19995;-62
2024/04/10 10:43:10;;;;;;;4.70;1.75;;;13.20;61.80;;;;;;5410203;26;20335;-61
2024/04/10 10:45:36;;;;;;;3.90;1.70;;;13.20;61.50;;;;;;5417942;26;20130;-63
2024/04/10 10:48:03;;;;;;;4.43;1.65;;;13.10;61.20;;;;;;5435163;26;20023;-62
2024/04/10 10:50:30;;;;;;;5.55;1.80;;;13.10;61.30;;;;;;5406440;26;20338;-61
2024/04/10 10:52:57;;;;;;;4.32;1.50;;;13.10;62.00;;;;;;5407385;26;20003;-63
2024/04/10 10:55:23;;;;;;;6.82;2.00;;;13.00;62.40;;;;;;5407803;26;20036;-63
2024/04/10 10:58:00;;;;;;;4.10;1.35;;;13.10;61.60;;;;;;5401599;26;20326;-62
2024/04/10 11:00:29;;;;;;;6.28;1.83;;;13.00;60.80;;;;;;5385975;26;20467;-63
2024/04/10 11:02:55;;;;;;;2.67;1.60;;;13.00;62.00;;;;;;5356548;26;20033;-62
2024/04/10 11:05:22;;;;;;;6.47;2.10;;;13.10;62.60;;;;;;5371846;26;20013;-63
2024/04/10 11:07:56;;;;;;;3.10;1.60;;;13.10;61.60;;;;;;5370216;26;20033;-62
2024/04/10 11:10:24;;;;;;;5.90;1.70;;;13.10;61.50;;;;;;5419518;26;20452;-63
2024/04/10 11:13:07;;;;;;;3.90;1.63;;;13.10;62.00;;;;;;5404285;26;20003;-63
2024/04/10 11:15:46;;;;;;;3.45;1.77;;;13.20;61.70;;;;;;5397942;26;20003;-63
2024/04/10 11:18:19;;;;;;;4.38;1.70;;;13.30;61.20;;;;;;5400108;26;19995;-63
2024/04/10 11:20:49;;;;;;;5.32;2.00;;;13.30;61.00;;;;;;5408089;26;20015;-62
2024/04/10 11:23:15;;;;;;;6.00;1.70;;;13.40;60.40;;;;;;5405156;26;20014;-64
2024/04/10 11:25:41;;;;;;;8.23;1.88;;;13.40;60.30;;;;;;5407107;26;19999;-64
2024/04/10 11:28:07;;;;;;;5.40;2.00;;;13.40;60.30;;;;;;5402351;26;20037;-63
2024/04/10 11:30:33;;;;;;;3.95;1.63;;;13.40;60.30;;;;;;5400355;26;19996;-63
2024/04/10 11:32:58;;;;;;;4.45;1.73;;;13.50;60.60;;;;;;5404089;26;20011;-63
2024/04/10 11:35:25;;;;;;;2.85;1.38;;;13.50;60.50;;;;;;5406232;26;20011;-63
2024/04/10 11:37:52;;;;;;;6.82;1.55;;;13.60;60.80;;;;;;5405766;26;19999;-63
2024/04/10 11:40:19;;;;;;;3.97;1.20;;;13.60;59.10;;;;;;5405463;26;20007;-63
2024/04/10 11:42:45;;;;;;;3.53;1.23;;;13.60;59.30;;;;;;5407046;26;20014;-63
2024/04/10 11:45:11;;;;;;;4.80;1.20;;;13.70;59.80;;;;;;5399359;26;20447;-62
2024/04/10 11:47:37;;;;;;;5.85;1.40;;;13.70;58.90;;;;;;5399611;26;19995;-63
2024/04/10 11:50:07;;;;;;;7.15;1.35;;;13.80;59.40;;;;;;5407636;26;20027;-63
2024/04/10 11:52:36;;;;;;;4.18;1.10;;;13.90;59.00;;;;;;5407819;26;20009;-62
2024/04/10 11:55:03;;;;;;;3.92;0.90;;;13.90;58.90;;;;;;5402672;26;20004;-63
2024/04/10 11:57:29;;;;;;;4.53;1.40;;;14.00;58.40;;;;;;5400189;26;20004;-63
2024/04/10 11:59:55;;;;;;;3.83;1.20;;;14.00;58.50;;;;;;5399181;26;19996;-62
2024/04/10 12:02:21;;;;;;;4.43;1.10;;;14.10;58.70;;;;;;5404155;26;20532;-63
2024/04/10 12:04:48;;;;;;;3.08;1.17;;;14.10;58.70;;;;;;5404863;26;20015;-64
2024/04/10 12:07:14;;;;;;;5.28;0.90;;;14.20;58.40;;;;;;5399716;26;19999;-62
2024/04/10 12:09:40;;;;;;;8.63;1.08;;;14.20;58.00;;;;;;5407826;26;20080;-62
2024/04/10 12:12:07;;;;;;;3.47;0.90;;;14.20;57.90;;;;;;5407841;26;20007;-61
2024/04/10 12:14:32;;;;;;;4.80;0.90;;;14.30;57.40;;;;;;5398393;26;20341;-63
2024/04/10 12:16:59;;;;;;;3.30;0.88;;;14.30;57.70;;;;;;5407565;26;20010;-63
2024/04/10 12:19:27;;;;;;;3.38;0.98;;;14.30;58.20;;;;;;5395739;26;20011;-63
2024/04/10 12:21:53;;;;;;;2.78;1.17;;;14.30;58.00;;;;;;5373200;26;20476;-63
2024/04/10 12:24:19;;;;;;;3.97;0.95;;;14.40;57.60;;;;;;5364970;26;20433;-63
2024/04/10 12:26:45;;;;;;;2.38;0.75;;;14.40;57.40;;;;;;5372972;26;20011;-63
2024/04/10 12:29:10;;;;;;;4.03;0.85;;;14.50;56.80;;;;;;5381722;26;19992;-63
2024/04/10 12:31:37;;;;;;;5.20;1.00;;;14.50;56.40;;;;;;5391789;26;19992;-63
2024/04/10 12:34:04;;;;;;;7.40;1.13;;;14.50;55.30;;;;;;5406255;26;20339;-62
2024/04/10 12:39:16;;;;;;;1.90;0.63;;;14.50;56.00;;;;;;5406594;26;20342;-63
2024/04/10 12:41:41;;;;;;;3.22;0.70;;;14.50;56.50;;;;;;5401190;26;20781;-64
2024/04/10 12:44:20;;;;;;;5.43;1.05;;;14.50;56.40;;;;;;5408181;26;20065;-63
2024/04/10 12:46:51;;;;;;;3.15;0.90;;;14.60;55.60;;;;;;5401743;26;21106;-62
2024/04/10 12:49:17;;;;;;;5.38;1.20;;;14.60;56.40;;;;;;5403482;26;20055;-63
2024/04/10 12:51:43;;;;;;;4.30;1.02;;;14.60;55.80;;;;;;5404475;26;19996;-64
2024/04/10 12:54:09;;;;;;;4.25;0.82;;;14.60;55.00;;;;;;5401619;26;20010;-63